sensor_id;sensor_type;location;lat;lon;timestamp;temperature;humidity
12971;DHT22;6550;48.650;8.774;2023-12-14T00:01:18;7.80;99.90
12971;DHT22;6550;48.650;8.774;2023-12-14T00:03:45;7.70;99.90
12971;DHT22;6550;48.650;8.774;2023-12-14T00:06:13;7.90;99.90
12971;DHT22;6550;48.650;8.774;2023-12-14T00:08:40;7.90;99.90
12971;DHT22;6550;48.650;8.774;2023-12-14T00:11:11;8.00;99.90
12971;DHT22;6550;48.650;8.774;2023-12-14T00:13:38;8.10;99.90
12971;DHT22;6550;48.650;8.774;2023-12-14T00:16:05;7.70;99.90
12971;DHT22;6550;48.650;8.774;2023-12-14T00:18:32;7.80;99.90
12971;DHT22;6550;48.650;8.774;2023-12-14T00:20:59;7.70;99.90
12971;DHT22;6550;48.650;8.774;2023-12-14T00:23:26;7.90;99.90
12971;DHT22;6550;48.650;8.774;2023-12-14T00:25:56;7.90;99.90
12971;DHT22;6550;48.650;8.774;2023-12-14T00:28:25;7.70;99.90
12971;DHT22;6550;48.650;8.774;2023-12-14T00:30:56;8.10;99.90
12971;DHT22;6550;48.650;8.774;2023-12-14T00:33:23;7.70;99.90
12971;DHT22;6550;48.650;8.774;2023-12-14T00:35:51;7.40;99.90
12971;DHT22;6550;48.650;8.774;2023-12-14T00:38:20;7.80;99.90
12971;DHT22;6550;48.650;8.774;2023-12-14T00:40:47;7.80;99.90
12971;DHT22;6550;48.650;8.774;2023-12-14T00:43:13;8.00;99.90
12971;DHT22;6550;48.650;8.774;2023-12-14T00:45:40;7.70;99.90
12971;DHT22;6550;48.650;8.774;2023-12-14T00:48:10;7.70;99.90
12971;DHT22;6550;48.650;8.774;2023-12-14T00:50:39;7.70;99.90
12971;DHT22;6550;48.650;8.774;2023-12-14T00:53:08;8.80;99.90
12971;DHT22;6550;48.650;8.774;2023-12-14T00:55:35;7.70;99.90
12971;DHT22;6550;48.650;8.774;2023-12-14T00:58:07;8.00;99.90
12971;DHT22;6550;48.650;8.774;2023-12-14T01:00:33;7.70;99.90
12971;DHT22;6550;48.650;8.774;2023-12-14T01:03:00;7.80;99.90
12971;DHT22;6550;48.650;8.774;2023-12-14T01:05:27;7.70;99.90
12971;DHT22;6550;48.650;8.774;2023-12-14T01:07:54;7.70;99.90
12971;DHT22;6550;48.650;8.774;2023-12-14T01:10:21;7.70;99.90
12971;DHT22;6550;48.650;8.774;2023-12-14T01:12:48;7.70;99.90
12971;DHT22;6550;48.650;8.774;2023-12-14T01:15:17;8.00;99.90
12971;DHT22;6550;48.650;8.774;2023-12-14T01:17:44;7.70;99.90
12971;DHT22;6550;48.650;8.774;2023-12-14T01:20:11;7.70;99.90
12971;DHT22;6550;48.650;8.774;2023-12-14T01:22:43;7.80;99.90
12971;DHT22;6550;48.650;8.774;2023-12-14T01:25:12;8.00;99.90
12971;DHT22;6550;48.650;8.774;2023-12-14T01:27:39;7.80;99.90
12971;DHT22;6550;48.650;8.774;2023-12-14T01:30:06;8.00;99.90
12971;DHT22;6550;48.650;8.774;2023-12-14T01:32:36;7.90;99.90
12971;DHT22;6550;48.650;8.774;2023-12-14T01:35:08;7.70;99.90
12971;DHT22;6550;48.650;8.774;2023-12-14T01:37:37;7.80;99.90
12971;DHT22;6550;48.650;8.774;2023-12-14T01:40:05;8.00;99.90
12971;DHT22;6550;48.650;8.774;2023-12-14T01:42:32;7.80;99.90
12971;DHT22;6550;48.650;8.774;2023-12-14T01:44:59;7.70;99.90
12971;DHT22;6550;48.650;8.774;2023-12-14T01:47:31;7.70;99.90
12971;DHT22;6550;48.650;8.774;2023-12-14T01:49:58;8.90;99.90
12971;DHT22;6550;48.650;8.774;2023-12-14T01:52:27;8.30;99.90
12971;DHT22;6550;48.650;8.774;2023-12-14T01:54:53;7.80;99.90
12971;DHT22;6550;48.650;8.774;2023-12-14T01:57:22;7.80;99.90
12971;DHT22;6550;48.650;8.774;2023-12-14T01:59:48;7.90;99.90
12971;DHT22;6550;48.650;8.774;2023-12-14T02:02:15;7.80;99.90
12971;DHT22;6550;48.650;8.774;2023-12-14T02:04:45;8.60;99.90
12971;DHT22;6550;48.650;8.774;2023-12-14T02:07:14;8.50;99.90
12971;DHT22;6550;48.650;8.774;2023-12-14T02:09:41;8.20;99.90
12971;DHT22;6550;48.650;8.774;2023-12-14T02:12:07;7.90;99.90
12971;DHT22;6550;48.650;8.774;2023-12-14T02:14:34;8.80;99.90
12971;DHT22;6550;48.650;8.774;2023-12-14T02:17:01;7.70;99.90
12971;DHT22;6550;48.650;8.774;2023-12-14T02:19:28;7.90;99.90
12971;DHT22;6550;48.650;8.774;2023-12-14T02:21:57;8.30;99.90
12971;DHT22;6550;48.650;8.774;2023-12-14T02:24:23;7.80;99.90
12971;DHT22;6550;48.650;8.774;2023-12-14T02:26:50;7.80;99.90
12971;DHT22;6550;48.650;8.774;2023-12-14T02:29:32;7.80;99.90
12971;DHT22;6550;48.650;8.774;2023-12-14T02:31:58;7.90;99.90
12971;DHT22;6550;48.650;8.774;2023-12-14T02:34:26;7.50;99.90
12971;DHT22;6550;48.650;8.774;2023-12-14T02:36:54;7.90;99.90
12971;DHT22;6550;48.650;8.774;2023-12-14T02:39:21;8.90;99.90
12971;DHT22;6550;48.650;8.774;2023-12-14T02:41:48;7.80;99.90
12971;DHT22;6550;48.650;8.774;2023-12-14T02:44:15;7.90;99.90
12971;DHT22;6550;48.650;8.774;2023-12-14T02:46:41;8.10;99.90
12971;DHT22;6550;48.650;8.774;2023-12-14T02:49:08;7.70;99.90
12971;DHT22;6550;48.650;8.774;2023-12-14T02:51:35;7.70;99.90
12971;DHT22;6550;48.650;8.774;2023-12-14T02:54:02;7.90;99.90
12971;DHT22;6550;48.650;8.774;2023-12-14T02:56:29;8.80;99.90
12971;DHT22;6550;48.650;8.774;2023-12-14T02:58:56;7.90;99.90
12971;DHT22;6550;48.650;8.774;2023-12-14T03:01:27;7.80;99.90
12971;DHT22;6550;48.650;8.774;2023-12-14T03:03:56;8.40;99.90
12971;DHT22;6550;48.650;8.774;2023-12-14T03:06:25;7.90;99.90
12971;DHT22;6550;48.650;8.774;2023-12-14T03:08:52;7.70;99.90
12971;DHT22;6550;48.650;8.774;2023-12-14T03:11:26;7.70;99.90
12971;DHT22;6550;48.650;8.774;2023-12-14T03:13:53;8.30;99.90
12971;DHT22;6550;48.650;8.774;2023-12-14T03:16:22;7.80;99.90
12971;DHT22;6550;48.650;8.774;2023-12-14T03:18:49;7.90;99.90
12971;DHT22;6550;48.650;8.774;2023-12-14T03:21:22;7.70;99.90
12971;DHT22;6550;48.650;8.774;2023-12-14T03:23:49;7.80;99.90
12971;DHT22;6550;48.650;8.774;2023-12-14T03:26:16;8.20;99.90
12971;DHT22;6550;48.650;8.774;2023-12-14T03:28:48;7.70;99.90
12971;DHT22;6550;48.650;8.774;2023-12-14T03:31:17;7.80;99.90
12971;DHT22;6550;48.650;8.774;2023-12-14T03:33:43;7.80;99.90
12971;DHT22;6550;48.650;8.774;2023-12-14T03:36:13;7.70;99.90
12971;DHT22;6550;48.650;8.774;2023-12-14T03:38:40;9.10;99.90
12971;DHT22;6550;48.650;8.774;2023-12-14T03:41:09;8.90;99.90
12971;DHT22;6550;48.650;8.774;2023-12-14T03:43:36;7.80;99.90
12971;DHT22;6550;48.650;8.774;2023-12-14T03:46:05;7.70;99.90
12971;DHT22;6550;48.650;8.774;2023-12-14T03:48:33;7.90;99.90
12971;DHT22;6550;48.650;8.774;2023-12-14T03:51:03;8.20;99.90
12971;DHT22;6550;48.650;8.774;2023-12-14T03:53:30;8.00;99.90
12971;DHT22;6550;48.650;8.774;2023-12-14T03:56:03;8.30;99.90
12971;DHT22;6550;48.650;8.774;2023-12-14T03:58:30;7.90;99.90
12971;DHT22;6550;48.650;8.774;2023-12-14T04:00:59;7.90;99.90
12971;DHT22;6550;48.650;8.774;2023-12-14T04:03:26;7.70;99.90
12971;DHT22;6550;48.650;8.774;2023-12-14T04:05:56;7.80;99.90
12971;DHT22;6550;48.650;8.774;2023-12-14T04:08:27;7.80;99.90
12971;DHT22;6550;48.650;8.774;2023-12-14T04:10:56;8.10;99.90
12971;DHT22;6550;48.650;8.774;2023-12-14T04:13:23;8.10;99.90
12971;DHT22;6550;48.650;8.774;2023-12-14T04:15:49;9.00;99.90
12971;DHT22;6550;48.650;8.774;2023-12-14T04:18:16;8.20;99.90
12971;DHT22;6550;48.650;8.774;2023-12-14T04:20:43;7.90;99.90
12971;DHT22;6550;48.650;8.774;2023-12-14T04:23:12;7.80;99.90
12971;DHT22;6550;48.650;8.774;2023-12-14T04:25:39;7.70;99.90
12971;DHT22;6550;48.650;8.774;2023-12-14T04:28:06;9.00;99.90
12971;DHT22;6550;48.650;8.774;2023-12-14T04:30:34;8.90;99.90
12971;DHT22;6550;48.650;8.774;2023-12-14T04:33:03;7.60;99.90
12971;DHT22;6550;48.650;8.774;2023-12-14T04:35:30;7.90;99.90
12971;DHT22;6550;48.650;8.774;2023-12-14T04:38:02;8.50;99.90
12971;DHT22;6550;48.650;8.774;2023-12-14T04:40:29;8.20;99.90
12971;DHT22;6550;48.650;8.774;2023-12-14T04:42:56;7.90;99.90
12971;DHT22;6550;48.650;8.774;2023-12-14T04:45:25;8.30;99.90
12971;DHT22;6550;48.650;8.774;2023-12-14T04:47:52;8.50;99.90
12971;DHT22;6550;48.650;8.774;2023-12-14T04:50:19;8.00;99.90
12971;DHT22;6550;48.650;8.774;2023-12-14T04:52:46;8.00;99.90
12971;DHT22;6550;48.650;8.774;2023-12-14T04:55:15;7.90;99.90
12971;DHT22;6550;48.650;8.774;2023-12-14T04:57:44;8.00;99.90
12971;DHT22;6550;48.650;8.774;2023-12-14T05:00:15;8.10;99.90
12971;DHT22;6550;48.650;8.774;2023-12-14T05:02:46;7.80;99.90
12971;DHT22;6550;48.650;8.774;2023-12-14T05:05:14;7.80;99.90
12971;DHT22;6550;48.650;8.774;2023-12-14T05:07:44;7.80;99.90
12971;DHT22;6550;48.650;8.774;2023-12-14T05:10:10;7.70;99.90
12971;DHT22;6550;48.650;8.774;2023-12-14T05:12:37;8.30;99.90
12971;DHT22;6550;48.650;8.774;2023-12-14T05:15:05;7.90;99.90
12971;DHT22;6550;48.650;8.774;2023-12-14T05:17:32;7.80;99.90
12971;DHT22;6550;48.650;8.774;2023-12-14T05:20:01;7.80;99.90
12971;DHT22;6550;48.650;8.774;2023-12-14T05:22:28;8.00;99.90
12971;DHT22;6550;48.650;8.774;2023-12-14T05:24:54;7.80;99.90
12971;DHT22;6550;48.650;8.774;2023-12-14T05:27:21;7.70;99.90
12971;DHT22;6550;48.650;8.774;2023-12-14T05:29:48;8.10;99.90
12971;DHT22;6550;48.650;8.774;2023-12-14T05:32:15;7.90;99.90
12971;DHT22;6550;48.650;8.774;2023-12-14T05:34:44;8.00;99.90
12971;DHT22;6550;48.650;8.774;2023-12-14T05:37:11;8.30;99.90
12971;DHT22;6550;48.650;8.774;2023-12-14T05:39:41;8.00;99.90
12971;DHT22;6550;48.650;8.774;2023-12-14T05:42:08;8.00;99.90
12971;DHT22;6550;48.650;8.774;2023-12-14T05:44:43;8.00;99.90
12971;DHT22;6550;48.650;8.774;2023-12-14T05:47:11;8.20;99.90
12971;DHT22;6550;48.650;8.774;2023-12-14T05:49:41;7.80;99.90
12971;DHT22;6550;48.650;8.774;2023-12-14T05:52:11;8.00;99.90
12971;DHT22;6550;48.650;8.774;2023-12-14T05:54:38;8.50;99.90
12971;DHT22;6550;48.650;8.774;2023-12-14T05:57:13;8.00;99.90
12971;DHT22;6550;48.650;8.774;2023-12-14T05:59:42;8.10;99.90
12971;DHT22;6550;48.650;8.774;2023-12-14T06:02:09;8.30;99.90
12971;DHT22;6550;48.650;8.774;2023-12-14T06:04:40;8.10;99.90
12971;DHT22;6550;48.650;8.774;2023-12-14T06:07:14;7.90;99.90
12971;DHT22;6550;48.650;8.774;2023-12-14T06:09:41;7.90;99.90
12971;DHT22;6550;48.650;8.774;2023-12-14T06:12:12;7.90;99.90
12971;DHT22;6550;48.650;8.774;2023-12-14T06:14:43;7.90;99.90
12971;DHT22;6550;48.650;8.774;2023-12-14T06:17:11;7.80;99.90
12971;DHT22;6550;48.650;8.774;2023-12-14T06:19:40;7.80;99.90
12971;DHT22;6550;48.650;8.774;2023-12-14T06:22:07;7.90;99.90
12971;DHT22;6550;48.650;8.774;2023-12-14T06:24:37;7.80;99.90
12971;DHT22;6550;48.650;8.774;2023-12-14T06:27:06;7.70;99.90
12971;DHT22;6550;48.650;8.774;2023-12-14T06:29:33;7.80;99.90
12971;DHT22;6550;48.650;8.774;2023-12-14T06:31:59;7.80;99.90
12971;DHT22;6550;48.650;8.774;2023-12-14T06:34:31;8.00;99.90
12971;DHT22;6550;48.650;8.774;2023-12-14T06:36:58;7.80;99.90
12971;DHT22;6550;48.650;8.774;2023-12-14T06:39:26;8.70;99.90
12971;DHT22;6550;48.650;8.774;2023-12-14T06:41:53;7.90;99.90
12971;DHT22;6550;48.650;8.774;2023-12-14T06:44:22;7.90;99.90
12971;DHT22;6550;48.650;8.774;2023-12-14T06:46:49;9.20;99.90
12971;DHT22;6550;48.650;8.774;2023-12-14T06:49:16;8.10;99.90
12971;DHT22;6550;48.650;8.774;2023-12-14T06:51:43;8.00;99.90
12971;DHT22;6550;48.650;8.774;2023-12-14T06:54:12;7.90;99.90
12971;DHT22;6550;48.650;8.774;2023-12-14T06:56:39;7.90;99.90
12971;DHT22;6550;48.650;8.774;2023-12-14T06:59:05;8.40;99.90
12971;DHT22;6550;48.650;8.774;2023-12-14T07:01:32;9.30;99.90
12971;DHT22;6550;48.650;8.774;2023-12-14T07:04:02;7.60;99.90
12971;DHT22;6550;48.650;8.774;2023-12-14T07:06:31;7.90;99.90
12971;DHT22;6550;48.650;8.774;2023-12-14T07:08:58;7.80;99.90
12971;DHT22;6550;48.650;8.774;2023-12-14T07:11:25;8.10;99.90
12971;DHT22;6550;48.650;8.774;2023-12-14T07:13:52;7.70;99.90
12971;DHT22;6550;48.650;8.774;2023-12-14T07:16:18;8.40;99.90
12971;DHT22;6550;48.650;8.774;2023-12-14T07:18:45;7.90;99.90
12971;DHT22;6550;48.650;8.774;2023-12-14T07:21:13;7.90;99.90
12971;DHT22;6550;48.650;8.774;2023-12-14T07:23:40;7.80;99.90
12971;DHT22;6550;48.650;8.774;2023-12-14T07:26:07;7.90;99.90
12971;DHT22;6550;48.650;8.774;2023-12-14T07:28:34;8.40;99.90
12971;DHT22;6550;48.650;8.774;2023-12-14T07:31:03;8.10;99.90
12971;DHT22;6550;48.650;8.774;2023-12-14T07:33:34;8.90;99.90
12971;DHT22;6550;48.650;8.774;2023-12-14T07:36:02;8.80;99.90
12971;DHT22;6550;48.650;8.774;2023-12-14T07:38:31;8.20;99.90
12971;DHT22;6550;48.650;8.774;2023-12-14T07:41:00;9.70;99.90
12971;DHT22;6550;48.650;8.774;2023-12-14T07:43:27;9.40;99.90
12971;DHT22;6550;48.650;8.774;2023-12-14T07:45:57;8.40;99.90
12971;DHT22;6550;48.650;8.774;2023-12-14T07:48:27;8.30;99.90
12971;DHT22;6550;48.650;8.774;2023-12-14T07:50:55;9.10;99.90
12971;DHT22;6550;48.650;8.774;2023-12-14T07:53:22;8.10;99.90
12971;DHT22;6550;48.650;8.774;2023-12-14T07:55:49;8.00;99.90
12971;DHT22;6550;48.650;8.774;2023-12-14T07:58:21;8.70;99.90
12971;DHT22;6550;48.650;8.774;2023-12-14T08:00:54;8.40;99.90
12971;DHT22;6550;48.650;8.774;2023-12-14T08:03:21;9.50;99.90
12971;DHT22;6550;48.650;8.774;2023-12-14T08:05:48;8.00;99.90
12971;DHT22;6550;48.650;8.774;2023-12-14T08:08:15;8.00;99.90
12971;DHT22;6550;48.650;8.774;2023-12-14T08:10:44;8.00;99.90
12971;DHT22;6550;48.650;8.774;2023-12-14T08:13:11;8.00;99.90
12971;DHT22;6550;48.650;8.774;2023-12-14T08:15:38;9.90;99.90
12971;DHT22;6550;48.650;8.774;2023-12-14T08:18:07;9.40;99.90
12971;DHT22;6550;48.650;8.774;2023-12-14T08:20:39;9.10;99.90
12971;DHT22;6550;48.650;8.774;2023-12-14T08:23:08;9.90;99.90
12971;DHT22;6550;48.650;8.774;2023-12-14T08:25:35;8.80;99.90
12971;DHT22;6550;48.650;8.774;2023-12-14T08:28:04;8.30;99.90
12971;DHT22;6550;48.650;8.774;2023-12-14T08:30:31;9.80;99.90
12971;DHT22;6550;48.650;8.774;2023-12-14T08:33:01;8.40;99.90
12971;DHT22;6550;48.650;8.774;2023-12-14T08:35:28;8.40;99.90
12971;DHT22;6550;48.650;8.774;2023-12-14T08:37:57;8.30;99.90
12971;DHT22;6550;48.650;8.774;2023-12-14T08:40:24;8.40;99.90
12971;DHT22;6550;48.650;8.774;2023-12-14T08:42:54;8.50;99.90
12971;DHT22;6550;48.650;8.774;2023-12-14T08:45:26;9.00;99.90
12971;DHT22;6550;48.650;8.774;2023-12-14T08:47:52;8.60;99.90
12971;DHT22;6550;48.650;8.774;2023-12-14T08:50:21;8.30;99.90
12971;DHT22;6550;48.650;8.774;2023-12-14T08:52:48;9.00;99.90
12971;DHT22;6550;48.650;8.774;2023-12-14T08:55:16;9.00;99.90
12971;DHT22;6550;48.650;8.774;2023-12-14T08:57:45;8.40;99.90
12971;DHT22;6550;48.650;8.774;2023-12-14T09:00:12;8.50;99.90
12971;DHT22;6550;48.650;8.774;2023-12-14T09:02:39;8.60;99.90
12971;DHT22;6550;48.650;8.774;2023-12-14T09:05:09;8.50;99.90
12971;DHT22;6550;48.650;8.774;2023-12-14T09:07:42;8.90;99.90
12971;DHT22;6550;48.650;8.774;2023-12-14T09:10:12;8.50;99.90
12971;DHT22;6550;48.650;8.774;2023-12-14T09:12:41;8.70;99.90
12971;DHT22;6550;48.650;8.774;2023-12-14T09:15:08;8.90;99.90
12971;DHT22;6550;48.650;8.774;2023-12-14T09:17:35;9.10;99.90
12971;DHT22;6550;48.650;8.774;2023-12-14T09:20:04;10.10;99.90
12971;DHT22;6550;48.650;8.774;2023-12-14T09:22:36;8.90;99.90
12971;DHT22;6550;48.650;8.774;2023-12-14T09:25:06;10.00;99.90
12971;DHT22;6550;48.650;8.774;2023-12-14T09:27:33;8.90;99.90
12971;DHT22;6550;48.650;8.774;2023-12-14T09:30:00;9.00;99.90
12971;DHT22;6550;48.650;8.774;2023-12-14T09:32:27;9.00;99.90
12971;DHT22;6550;48.650;8.774;2023-12-14T09:34:54;9.00;99.90
12971;DHT22;6550;48.650;8.774;2023-12-14T09:37:23;9.40;99.90
12971;DHT22;6550;48.650;8.774;2023-12-14T09:39:50;9.10;99.90
12971;DHT22;6550;48.650;8.774;2023-12-14T09:42:20;10.50;99.90
12971;DHT22;6550;48.650;8.774;2023-12-14T09:44:47;10.40;99.90
12971;DHT22;6550;48.650;8.774;2023-12-14T09:47:17;8.60;99.90
12971;DHT22;6550;48.650;8.774;2023-12-14T09:49:45;10.00;99.90
12971;DHT22;6550;48.650;8.774;2023-12-14T09:52:12;9.40;99.90
12971;DHT22;6550;48.650;8.774;2023-12-14T09:54:44;10.50;99.90
12971;DHT22;6550;48.650;8.774;2023-12-14T09:57:11;9.90;99.90
12971;DHT22;6550;48.650;8.774;2023-12-14T09:59:38;9.40;99.90
12971;DHT22;6550;48.650;8.774;2023-12-14T10:02:14;9.50;99.90
12971;DHT22;6550;48.650;8.774;2023-12-14T10:04:43;9.90;99.90
12971;DHT22;6550;48.650;8.774;2023-12-14T10:07:10;9.60;99.90
12971;DHT22;6550;48.650;8.774;2023-12-14T10:09:42;9.60;99.90
12971;DHT22;6550;48.650;8.774;2023-12-14T10:12:11;9.60;99.90
12971;DHT22;6550;48.650;8.774;2023-12-14T10:14:40;10.80;99.90
12971;DHT22;6550;48.650;8.774;2023-12-14T10:17:16;10.90;99.90
12971;DHT22;6550;48.650;8.774;2023-12-14T10:19:45;9.70;99.90
12971;DHT22;6550;48.650;8.774;2023-12-14T10:22:18;9.80;99.90
12971;DHT22;6550;48.650;8.774;2023-12-14T10:24:47;10.20;99.90
12971;DHT22;6550;48.650;8.774;2023-12-14T10:27:17;10.30;99.90
12971;DHT22;6550;48.650;8.774;2023-12-14T10:29:44;9.90;99.90
12971;DHT22;6550;48.650;8.774;2023-12-14T10:32:12;10.70;99.90
12971;DHT22;6550;48.650;8.774;2023-12-14T10:34:40;10.40;99.90
12971;DHT22;6550;48.650;8.774;2023-12-14T10:37:09;10.60;99.90
12971;DHT22;6550;48.650;8.774;2023-12-14T10:39:37;10.40;99.90
12971;DHT22;6550;48.650;8.774;2023-12-14T10:42:09;11.20;99.90
12971;DHT22;6550;48.650;8.774;2023-12-14T10:44:45;10.50;99.90
12971;DHT22;6550;48.650;8.774;2023-12-14T10:47:34;9.90;99.90
12971;DHT22;6550;48.650;8.774;2023-12-14T10:50:05;10.60;99.90
12971;DHT22;6550;48.650;8.774;2023-12-14T10:52:34;10.20;99.90
12971;DHT22;6550;48.650;8.774;2023-12-14T10:55:09;10.00;99.90
12971;DHT22;6550;48.650;8.774;2023-12-14T10:57:38;10.20;99.90
12971;DHT22;6550;48.650;8.774;2023-12-14T11:00:09;10.40;99.90
12971;DHT22;6550;48.650;8.774;2023-12-14T11:02:40;10.40;99.90
12971;DHT22;6550;48.650;8.774;2023-12-14T11:05:12;11.40;99.90
12971;DHT22;6550;48.650;8.774;2023-12-14T11:07:50;10.10;99.90
12971;DHT22;6550;48.650;8.774;2023-12-14T11:10:25;10.20;99.90
12971;DHT22;6550;48.650;8.774;2023-12-14T11:13:02;10.30;99.90
12971;DHT22;6550;48.650;8.774;2023-12-14T11:15:30;10.30;99.90
12971;DHT22;6550;48.650;8.774;2023-12-14T11:26:04;11.80;99.90
12971;DHT22;6550;48.650;8.774;2023-12-14T11:28:37;10.90;99.90
12971;DHT22;6550;48.650;8.774;2023-12-14T11:31:05;11.40;99.90
12971;DHT22;6550;48.650;8.774;2023-12-14T11:33:35;10.90;99.90
12971;DHT22;6550;48.650;8.774;2023-12-14T11:36:10;11.50;99.90
12971;DHT22;6550;48.650;8.774;2023-12-14T11:38:41;11.00;99.90
12971;DHT22;6550;48.650;8.774;2023-12-14T11:41:08;11.60;99.90
12971;DHT22;6550;48.650;8.774;2023-12-14T11:43:46;10.90;99.90
12971;DHT22;6550;48.650;8.774;2023-12-14T11:46:14;10.80;99.90
12971;DHT22;6550;48.650;8.774;2023-12-14T11:48:44;11.40;99.90
12971;DHT22;6550;48.650;8.774;2023-12-14T11:51:15;10.70;99.90
12971;DHT22;6550;48.650;8.774;2023-12-14T11:53:48;10.60;99.90
12971;DHT22;6550;48.650;8.774;2023-12-14T11:56:18;10.70;99.90
12971;DHT22;6550;48.650;8.774;2023-12-14T11:58:46;10.70;99.90
12971;DHT22;6550;48.650;8.774;2023-12-14T12:01:15;10.70;99.90
12971;DHT22;6550;48.650;8.774;2023-12-14T12:03:44;10.70;99.90
12971;DHT22;6550;48.650;8.774;2023-12-14T12:06:23;10.50;99.90
12971;DHT22;6550;48.650;8.774;2023-12-14T12:08:51;10.70;99.90
12971;DHT22;6550;48.650;8.774;2023-12-14T12:11:22;10.70;99.90
12971;DHT22;6550;48.650;8.774;2023-12-14T12:13:57;10.70;99.90
12971;DHT22;6550;48.650;8.774;2023-12-14T12:16:24;10.90;99.90
12971;DHT22;6550;48.650;8.774;2023-12-14T12:18:54;10.70;99.90
12971;DHT22;6550;48.650;8.774;2023-12-14T12:21:23;11.10;99.90
12971;DHT22;6550;48.650;8.774;2023-12-14T12:23:53;11.40;99.90
12971;DHT22;6550;48.650;8.774;2023-12-14T12:26:19;11.30;99.90
12971;DHT22;6550;48.650;8.774;2023-12-14T12:28:46;12.00;99.90
12971;DHT22;6550;48.650;8.774;2023-12-14T12:31:17;11.50;99.90
12971;DHT22;6550;48.650;8.774;2023-12-14T12:33:46;11.70;99.90
12971;DHT22;6550;48.650;8.774;2023-12-14T12:36:14;11.20;99.90
12971;DHT22;6550;48.650;8.774;2023-12-14T12:38:46;10.70;99.90
12971;DHT22;6550;48.650;8.774;2023-12-14T12:41:13;11.30;99.90
12971;DHT22;6550;48.650;8.774;2023-12-14T12:43:42;11.20;99.90
12971;DHT22;6550;48.650;8.774;2023-12-14T12:46:13;11.50;99.90
12971;DHT22;6550;48.650;8.774;2023-12-14T12:48:40;11.10;99.90
12971;DHT22;6550;48.650;8.774;2023-12-14T12:51:07;11.10;99.90
12971;DHT22;6550;48.650;8.774;2023-12-14T12:53:34;10.80;99.90
12971;DHT22;6550;48.650;8.774;2023-12-14T12:56:00;10.60;99.90
12971;DHT22;6550;48.650;8.774;2023-12-14T12:58:29;10.70;99.90
12971;DHT22;6550;48.650;8.774;2023-12-14T13:00:55;10.60;99.90
12971;DHT22;6550;48.650;8.774;2023-12-14T13:03:23;10.70;99.90
12971;DHT22;6550;48.650;8.774;2023-12-14T13:05:50;11.10;99.90
12971;DHT22;6550;48.650;8.774;2023-12-14T13:08:19;11.10;99.90
12971;DHT22;6550;48.650;8.774;2023-12-14T13:10:52;11.30;99.90
12971;DHT22;6550;48.650;8.774;2023-12-14T13:13:24;10.60;99.90
12971;DHT22;6550;48.650;8.774;2023-12-14T13:15:51;10.90;99.90
12971;DHT22;6550;48.650;8.774;2023-12-14T13:18:20;11.40;99.90
12971;DHT22;6550;48.650;8.774;2023-12-14T13:20:47;10.40;99.90
12971;DHT22;6550;48.650;8.774;2023-12-14T13:23:13;10.30;99.90
12971;DHT22;6550;48.650;8.774;2023-12-14T13:25:43;10.80;99.90
12971;DHT22;6550;48.650;8.774;2023-12-14T13:28:11;10.30;99.90
12971;DHT22;6550;48.650;8.774;2023-12-14T13:30:46;11.00;99.90
12971;DHT22;6550;48.650;8.774;2023-12-14T13:33:15;10.30;99.90
12971;DHT22;6550;48.650;8.774;2023-12-14T13:35:42;10.30;99.90
12971;DHT22;6550;48.650;8.774;2023-12-14T13:38:11;10.30;99.90
12971;DHT22;6550;48.650;8.774;2023-12-14T13:40:37;11.10;99.90
12971;DHT22;6550;48.650;8.774;2023-12-14T13:43:07;11.80;99.90
12971;DHT22;6550;48.650;8.774;2023-12-14T13:45:38;10.70;99.90
12971;DHT22;6550;48.650;8.774;2023-12-14T13:48:05;10.90;99.90
12971;DHT22;6550;48.650;8.774;2023-12-14T13:50:34;10.30;99.90
12971;DHT22;6550;48.650;8.774;2023-12-14T13:53:01;11.70;99.90
12971;DHT22;6550;48.650;8.774;2023-12-14T13:55:31;10.80;99.90
12971;DHT22;6550;48.650;8.774;2023-12-14T13:57:58;10.40;99.90
12971;DHT22;6550;48.650;8.774;2023-12-14T14:00:25;11.70;99.90
12971;DHT22;6550;48.650;8.774;2023-12-14T14:02:55;10.10;99.90
12971;DHT22;6550;48.650;8.774;2023-12-14T14:05:22;10.20;99.90
12971;DHT22;6550;48.650;8.774;2023-12-14T14:07:50;11.60;99.90
12971;DHT22;6550;48.650;8.774;2023-12-14T14:10:19;10.90;99.90
12971;DHT22;6550;48.650;8.774;2023-12-14T14:12:48;10.20;99.90
12971;DHT22;6550;48.650;8.774;2023-12-14T14:15:16;10.60;99.90
12971;DHT22;6550;48.650;8.774;2023-12-14T14:17:43;10.10;99.90
12971;DHT22;6550;48.650;8.774;2023-12-14T14:20:10;11.40;99.90
12971;DHT22;6550;48.650;8.774;2023-12-14T14:22:37;10.40;99.90
12971;DHT22;6550;48.650;8.774;2023-12-14T14:25:08;10.70;99.90
12971;DHT22;6550;48.650;8.774;2023-12-14T14:27:35;10.10;99.90
12971;DHT22;6550;48.650;8.774;2023-12-14T14:30:03;11.00;99.90
12971;DHT22;6550;48.650;8.774;2023-12-14T14:32:29;10.00;99.90
12971;DHT22;6550;48.650;8.774;2023-12-14T14:34:58;10.40;99.90
12971;DHT22;6550;48.650;8.774;2023-12-14T14:37:27;10.80;99.90
12971;DHT22;6550;48.650;8.774;2023-12-14T14:39:56;9.90;99.90
12971;DHT22;6550;48.650;8.774;2023-12-14T14:42:25;9.90;99.90
12971;DHT22;6550;48.650;8.774;2023-12-14T14:44:54;9.90;99.90
12971;DHT22;6550;48.650;8.774;2023-12-14T14:47:21;9.90;99.90
12971;DHT22;6550;48.650;8.774;2023-12-14T14:49:52;9.80;99.90
12971;DHT22;6550;48.650;8.774;2023-12-14T14:52:23;9.80;99.90
12971;DHT22;6550;48.650;8.774;2023-12-14T14:54:51;9.80;99.90
12971;DHT22;6550;48.650;8.774;2023-12-14T14:57:17;10.40;99.90
12971;DHT22;6550;48.650;8.774;2023-12-14T14:59:47;10.50;99.90
12971;DHT22;6550;48.650;8.774;2023-12-14T15:02:13;11.40;99.90
12971;DHT22;6550;48.650;8.774;2023-12-14T15:04:41;10.30;99.90
12971;DHT22;6550;48.650;8.774;2023-12-14T15:07:08;9.60;99.90
12971;DHT22;6550;48.650;8.774;2023-12-14T15:09:37;10.60;99.90
12971;DHT22;6550;48.650;8.774;2023-12-14T15:12:04;9.50;99.90
12971;DHT22;6550;48.650;8.774;2023-12-14T15:14:30;9.60;99.90
12971;DHT22;6550;48.650;8.774;2023-12-14T15:16:57;10.90;99.90
12971;DHT22;6550;48.650;8.774;2023-12-14T15:19:24;9.50;99.90
12971;DHT22;6550;48.650;8.774;2023-12-14T15:21:51;9.50;99.90
12971;DHT22;6550;48.650;8.774;2023-12-14T15:24:18;9.40;99.90
12971;DHT22;6550;48.650;8.774;2023-12-14T15:26:45;9.30;99.90
12971;DHT22;6550;48.650;8.774;2023-12-14T15:29:12;10.00;99.90
12971;DHT22;6550;48.650;8.774;2023-12-14T15:31:40;10.00;99.90
12971;DHT22;6550;48.650;8.774;2023-12-14T15:34:08;9.30;99.90
12971;DHT22;6550;48.650;8.774;2023-12-14T15:36:35;9.90;99.90
12971;DHT22;6550;48.650;8.774;2023-12-14T15:39:04;10.20;99.90
12971;DHT22;6550;48.650;8.774;2023-12-14T15:41:33;9.20;99.90
12971;DHT22;6550;48.650;8.774;2023-12-14T15:44:03;10.70;99.90
12971;DHT22;6550;48.650;8.774;2023-12-14T15:46:30;9.20;99.90
12971;DHT22;6550;48.650;8.774;2023-12-14T15:48:59;9.10;99.90
12971;DHT22;6550;48.650;8.774;2023-12-14T15:51:26;9.60;99.90
12971;DHT22;6550;48.650;8.774;2023-12-14T15:53:55;9.00;99.90
12971;DHT22;6550;48.650;8.774;2023-12-14T15:56:23;9.10;99.90
12971;DHT22;6550;48.650;8.774;2023-12-14T15:58:54;8.80;99.90
12971;DHT22;6550;48.650;8.774;2023-12-14T16:01:22;8.80;99.90
12971;DHT22;6550;48.650;8.774;2023-12-14T16:03:49;9.10;99.90
12971;DHT22;6550;48.650;8.774;2023-12-14T16:06:16;9.00;99.90
12971;DHT22;6550;48.650;8.774;2023-12-14T16:08:44;10.00;99.90
12971;DHT22;6550;48.650;8.774;2023-12-14T16:11:11;9.20;99.90
12971;DHT22;6550;48.650;8.774;2023-12-14T16:13:42;10.20;99.90